createdAt,value
2022-11-19T00:02:03.815Z,99559.78
2022-11-19T00:04:32.067Z,99561.38
2022-11-19T00:07:00.385Z,99547.41
2022-11-19T00:09:28.259Z,99549.50
2022-11-19T00:12:13.569Z,99556.72
2022-11-19T00:14:43.045Z,99544.50
2022-11-19T00:17:10.904Z,99555.88
2022-11-19T00:19:38.698Z,99549.25
2022-11-19T00:22:06.778Z,99545.53
2022-11-19T00:24:36.992Z,99545.06
2022-11-19T00:27:05.123Z,99557.38
2022-11-19T00:29:34.203Z,99545.31
2022-11-19T00:32:05.450Z,99559.25
2022-11-19T00:34:33.355Z,99550.75
2022-11-19T00:37:01.281Z,99556.16
2022-11-19T00:39:29.066Z,99551.16
2022-11-19T00:41:58.913Z,99548.31
2022-11-19T00:44:26.632Z,99559.25
2022-11-19T00:46:54.398Z,99576.91
2022-11-19T00:49:23.543Z,99563.41
2022-11-19T00:51:51.456Z,99565.28
2022-11-19T00:54:19.747Z,99556.34
2022-11-19T00:56:48.395Z,99570.06
2022-11-19T00:59:16.638Z,99567.94
2022-11-19T01:01:48.995Z,99574.63
2022-11-19T01:04:18.531Z,99567.59
2022-11-19T01:06:48.078Z,99574.03
2022-11-19T01:09:15.865Z,99575.25
2022-11-19T01:11:43.621Z,99576.06
2022-11-19T01:14:11.868Z,99574.63
2022-11-19T01:16:43.000Z,99581.69
2022-11-19T01:19:17.017Z,99574.44
2022-11-19T01:21:46.721Z,99591.84
2022-11-19T01:24:19.309Z,99587.69
2022-11-19T01:26:47.130Z,99594.31
2022-11-19T01:29:15.289Z,99594.13
2022-11-19T01:31:43.100Z,99578.38
2022-11-19T01:34:11.111Z,99599.50
2022-11-19T01:36:39.066Z,99598.25
2022-11-19T01:39:08.243Z,99604.28
2022-11-19T01:41:37.032Z,99597.41
2022-11-19T01:44:07.503Z,99613.78
2022-11-19T01:46:38.391Z,99603.22
2022-11-19T01:49:09.893Z,99611.81
2022-11-19T01:51:40.550Z,99607.28
2022-11-19T01:54:14.802Z,99614.72
2022-11-19T01:56:43.836Z,99607.13
2022-11-19T01:59:15.486Z,99627.56
2022-11-19T02:01:44.593Z,99613.66
2022-11-19T02:04:14.375Z,99609.88
2022-11-19T02:06:45.104Z,99600.88
2022-11-19T02:09:14.291Z,99613.38
2022-11-19T02:12:04.055Z,99619.09
2022-11-19T02:14:55.351Z,99614.28
2022-11-19T02:17:39.356Z,99613.91
2022-11-19T02:20:39.916Z,99622.59
2022-11-19T02:23:27.570Z,99617.44
2022-11-19T02:26:18.347Z,99614.94
2022-11-19T02:28:48.766Z,99615.53
2022-11-19T02:31:24.064Z,99610.75
2022-11-19T02:33:59.034Z,99613.25
2022-11-19T02:36:32.501Z,99620.66
2022-11-19T02:39:07.589Z,99614.84
2022-11-19T02:41:41.756Z,99610.97
2022-11-19T02:44:41.250Z,99597.69
2022-11-19T02:47:15.189Z,99618.75
2022-11-19T02:49:44.981Z,99627.94
2022-11-19T02:52:15.246Z,99621.56
2022-11-19T02:54:43.023Z,99628.56
2022-11-19T02:57:12.535Z,99631.34
2022-11-19T03:00:00.867Z,99643.22
2022-11-19T03:02:52.408Z,99637.91
2022-11-19T03:05:23.040Z,99632.34
2022-11-19T03:07:51.482Z,99639.47
2022-11-19T03:10:23.910Z,99634.03
2022-11-19T03:12:56.627Z,99643.72
2022-11-19T03:15:49.290Z,99638.44
2022-11-19T03:18:22.222Z,99644.63
2022-11-19T03:20:56.950Z,99650.16
2022-11-19T03:23:30.530Z,99650.44
2022-11-19T03:26:02.545Z,99658.06
2022-11-19T03:28:35.183Z,99655.09
2022-11-19T03:31:05.356Z,99652.09
2022-11-19T03:33:37.688Z,99661.38
2022-11-19T03:36:10.726Z,99659.63
2022-11-19T03:38:42.090Z,99653.59
2022-11-19T03:41:14.152Z,99668.13
2022-11-19T03:43:46.102Z,99675.63
2022-11-19T03:46:20.741Z,99670.47
2022-11-19T03:48:53.525Z,99678.16
2022-11-19T03:51:25.334Z,99673.19
2022-11-19T03:53:54.120Z,99661.66
2022-11-19T03:56:25.420Z,99681.53
2022-11-19T03:58:54.399Z,99685.38
2022-11-19T04:01:23.229Z,99681.91
2022-11-19T04:04:06.377Z,99679.34
2022-11-19T04:06:34.202Z,99674.81
2022-11-19T04:09:02.246Z,99671.13
2022-11-19T04:11:30.065Z,99686.53
2022-11-19T04:13:58.116Z,99686.34
2022-11-19T04:16:27.494Z,99688.22
2022-11-19T04:18:56.793Z,99684.88
2022-11-19T04:21:25.412Z,99691.13
2022-11-19T04:23:55.457Z,99693.66
2022-11-19T04:26:24.420Z,99690.88
2022-11-19T04:28:53.272Z,99694.81
2022-11-19T04:31:21.210Z,99687.28
2022-11-19T04:33:49.076Z,99687.91
2022-11-19T04:36:18.131Z,99701.78
2022-11-19T04:38:45.906Z,99700.31
2022-11-19T04:41:14.168Z,99708.75
2022-11-19T04:43:42.209Z,99711.31
2022-11-19T04:46:10.314Z,99710.66
2022-11-19T04:48:38.085Z,99711.41
2022-11-19T04:51:05.989Z,99709.31
2022-11-19T04:53:35.537Z,99710.38
2022-11-19T04:56:03.448Z,99708.28
2022-11-19T04:58:31.371Z,99705.84
2022-11-19T05:00:59.411Z,99684.00
2022-11-19T05:03:27.461Z,99705.22
2022-11-19T05:05:55.281Z,99708.22
2022-11-19T05:08:23.895Z,99706.94
2022-11-19T05:10:53.223Z,99693.47
2022-11-19T05:13:21.523Z,99713.72
2022-11-19T05:15:49.694Z,99719.28
2022-11-19T05:18:18.402Z,99716.88
2022-11-19T05:20:46.218Z,99716.78
2022-11-19T05:23:13.981Z,99713.94
2022-11-19T05:25:43.294Z,99719.47
2022-11-19T05:28:12.501Z,99722.28
2022-11-19T05:30:41.264Z,99735.09
2022-11-19T05:33:09.367Z,99736.69
2022-11-19T05:35:37.196Z,99728.38
2022-11-19T05:38:06.553Z,99730.88
2022-11-19T05:40:36.282Z,99738.28
2022-11-19T05:43:07.962Z,99744.03
2022-11-19T05:45:37.972Z,99736.31
2022-11-19T05:48:06.915Z,99748.25
2022-11-19T05:50:34.801Z,99740.84
2022-11-19T05:53:02.665Z,99744.31
2022-11-19T05:55:31.169Z,99757.63
2022-11-19T05:57:59.013Z,99749.41
2022-11-19T06:00:27.343Z,99748.38
2022-11-19T06:02:56.624Z,99746.72
2022-11-19T06:05:24.388Z,99755.59
2022-11-19T06:07:52.349Z,99757.03
2022-11-19T06:10:20.147Z,99754.53
2022-11-19T06:12:47.903Z,99754.47
2022-11-19T06:15:16.009Z,99758.53
2022-11-19T06:17:43.936Z,99759.47
2022-11-19T06:20:13.539Z,99750.88
2022-11-19T06:22:41.332Z,99772.19
2022-11-19T06:25:09.922Z,99764.78
2022-11-19T06:27:37.653Z,99773.06
2022-11-19T06:30:06.655Z,99772.06
2022-11-19T06:32:34.639Z,99781.66
2022-11-19T06:35:02.427Z,99788.84
2022-11-19T06:37:31.629Z,99785.84
2022-11-19T06:39:59.499Z,99789.53
2022-11-19T06:42:39.162Z,99774.22
2022-11-19T06:45:09.389Z,99795.22
2022-11-19T06:47:37.955Z,99787.19
2022-11-19T06:50:07.081Z,99792.53
2022-11-19T06:52:36.297Z,99775.59
2022-11-19T06:55:04.322Z,99799.44
2022-11-19T06:57:32.164Z,99794.72
2022-11-19T06:59:59.930Z,99801.84
2022-11-19T07:02:27.997Z,99797.06
2022-11-19T07:04:55.815Z,99810.91
2022-11-19T07:07:23.816Z,99806.31
2022-11-19T07:09:52.953Z,99800.38
2022-11-19T07:12:21.998Z,99803.44
2022-11-19T07:14:49.920Z,99800.69
2022-11-19T07:17:17.708Z,99809.00
2022-11-19T07:19:45.597Z,99820.28
2022-11-19T07:22:13.401Z,99810.84
2022-11-19T07:24:41.193Z,99817.75
2022-11-19T07:27:10.299Z,99821.03
2022-11-19T07:29:38.720Z,99825.91
2022-11-19T07:32:06.593Z,99833.41
2022-11-19T07:34:34.473Z,99819.72
2022-11-19T07:37:02.323Z,99828.13
2022-11-19T07:39:30.242Z,99826.00
2022-11-19T07:42:15.623Z,99829.63
2022-11-19T07:44:44.721Z,99829.78
2022-11-19T07:47:12.578Z,99836.56
2022-11-19T07:49:40.351Z,99836.63
2022-11-19T07:52:08.120Z,99841.81
2022-11-19T07:54:35.844Z,99841.19
2022-11-19T07:57:03.632Z,99847.84
2022-11-19T07:59:31.404Z,99848.19
2022-11-19T08:02:00.610Z,99842.34
2022-11-19T08:04:29.120Z,99844.03
2022-11-19T08:06:57.091Z,99844.22
2022-11-19T08:09:24.941Z,99837.63
2022-11-19T08:11:52.626Z,99845.22
2022-11-19T08:14:20.483Z,99844.50
2022-11-19T08:17:05.772Z,99865.75
2022-11-19T08:19:34.992Z,99851.44
2022-11-19T08:22:02.830Z,99853.81
2022-11-19T08:24:30.705Z,99856.72
2022-11-19T08:26:58.542Z,99857.63
2022-11-19T08:29:26.333Z,99859.97
2022-11-19T08:31:54.189Z,99872.53
2022-11-19T08:34:22.302Z,99865.31
2022-11-19T08:36:51.887Z,99863.47
2022-11-19T08:39:19.769Z,99857.81
2022-11-19T08:42:05.159Z,99871.97
2022-11-19T08:44:32.982Z,99867.59
2022-11-19T08:47:00.677Z,99873.94
2022-11-19T08:49:28.624Z,99878.28
2022-11-19T08:51:58.545Z,99859.50
2022-11-19T08:54:26.403Z,99869.81
2022-11-19T08:56:54.460Z,99879.53
2022-11-19T08:59:22.544Z,99884.78
2022-11-19T09:01:50.951Z,99901.25
2022-11-19T09:04:19.274Z,99886.00
2022-11-19T09:06:47.319Z,99887.47
2022-11-19T09:09:16.566Z,99904.91
2022-11-19T09:11:44.462Z,99901.31
2022-11-19T09:14:12.355Z,99906.25
2022-11-19T09:16:40.235Z,99907.66
2022-11-19T09:19:08.008Z,99911.19
2022-11-19T09:21:35.815Z,99902.25
2022-11-19T09:24:03.582Z,99911.44
2022-11-19T09:26:53.082Z,99919.13
2022-11-19T09:29:21.228Z,99922.28
2022-11-19T09:31:49.092Z,99920.31
2022-11-19T09:34:17.393Z,99912.28
2022-11-19T09:36:45.532Z,99924.66
2022-11-19T09:39:13.594Z,99925.97
2022-11-19T09:41:51.174Z,99923.00
2022-11-19T09:44:37.292Z,99935.13
2022-11-19T09:47:18.365Z,99934.75
2022-11-19T09:49:50.285Z,99933.56
2022-11-19T09:52:24.095Z,99934.19
2022-11-19T09:54:55.541Z,99935.13
2022-11-19T09:57:32.932Z,99925.09
2022-11-19T10:00:05.428Z,99924.19
2022-11-19T10:02:33.414Z,99935.00
2022-11-19T10:05:01.473Z,99937.47
2022-11-19T10:07:44.860Z,99929.16
2022-11-19T10:10:25.043Z,99934.34
2022-11-19T10:13:15.595Z,99937.78
2022-11-19T10:15:56.028Z,99927.91
2022-11-19T10:18:32.106Z,99933.25
2022-11-19T10:21:07.615Z,99925.38
2022-11-19T10:23:48.331Z,99936.53
2022-11-19T10:26:17.632Z,99937.88
2022-11-19T10:28:56.776Z,99937.22
2022-11-19T10:31:34.074Z,99926.94
2022-11-19T10:34:08.723Z,99933.34
2022-11-19T10:36:43.360Z,99938.06
2022-11-19T10:39:21.126Z,99939.44
2022-11-19T10:41:56.857Z,99926.41
2022-11-19T10:44:40.126Z,99940.56
2022-11-19T10:47:13.921Z,99929.00
2022-11-19T10:49:43.907Z,99925.59
2022-11-19T10:52:23.537Z,99938.28
2022-11-19T10:54:53.912Z,99936.69
2022-11-19T10:57:23.202Z,99942.13
2022-11-19T10:59:54.842Z,99932.53
2022-11-19T11:02:31.856Z,99932.94
2022-11-19T11:05:07.731Z,99945.81
2022-11-19T11:07:51.305Z,99934.72
2022-11-19T11:10:38.725Z,99936.72
2022-11-19T11:13:33.602Z,99928.44
2022-11-19T11:16:09.670Z,99926.31
2022-11-19T11:18:40.638Z,99915.38
2022-11-19T11:21:13.220Z,99925.91
2022-11-19T11:23:51.672Z,99926.59
2022-11-19T11:26:25.294Z,99921.41
2022-11-19T11:28:59.949Z,99921.16
2022-11-19T11:31:41.013Z,99920.84
2022-11-19T11:34:28.641Z,99926.22
2022-11-19T11:36:56.770Z,99922.84
2022-11-19T11:39:31.367Z,99935.25
2022-11-19T11:42:06.315Z,99933.69
2022-11-19T11:44:38.251Z,99931.91
2022-11-19T11:47:14.408Z,99915.66
2022-11-19T11:49:44.827Z,99935.00
2022-11-19T11:52:21.534Z,99917.47
2022-11-19T11:54:58.486Z,99926.00
2022-11-19T11:57:28.081Z,99931.78
2022-11-19T11:59:56.325Z,99932.72
2022-11-19T12:02:37.035Z,99931.59
2022-11-19T12:05:07.316Z,99935.13
2022-11-19T12:07:57.585Z,99925.97
2022-11-19T12:10:30.234Z,99921.16
2022-11-19T12:13:17.300Z,99916.91
2022-11-19T12:15:55.853Z,99926.66
2022-11-19T12:18:33.759Z,99918.09
2022-11-19T12:21:11.667Z,99920.34
2022-11-19T12:23:58.194Z,99912.81
2022-11-19T12:26:39.673Z,99916.75
2022-11-19T12:29:18.888Z,99912.63
2022-11-19T12:32:11.190Z,99910.66
2022-11-19T12:34:59.518Z,99903.69
2022-11-19T12:37:42.838Z,99917.81
2022-11-19T12:40:25.933Z,99915.38
2022-11-19T12:43:04.212Z,99912.53
2022-11-19T12:45:42.765Z,99928.63
2022-11-19T12:48:43.833Z,99920.28
2022-11-19T12:51:22.600Z,99913.72
2022-11-19T12:54:15.216Z,99930.81
2022-11-19T12:56:52.086Z,99930.31
2022-11-19T12:59:34.973Z,99936.88
2022-11-19T13:02:09.264Z,99929.84
2022-11-19T13:04:43.980Z,99929.47
2022-11-19T13:07:23.163Z,99923.41
2022-11-19T13:09:54.330Z,99913.47
2022-11-19T13:12:28.905Z,99942.94
2022-11-19T13:15:01.720Z,99917.25
2022-11-19T13:17:34.404Z,99907.81
2022-11-19T13:20:06.075Z,99921.00
2022-11-19T13:22:38.764Z,99935.78
2022-11-19T13:25:18.360Z,99933.28
2022-11-19T13:27:48.727Z,99920.91
2022-11-19T13:30:19.409Z,99911.50
2022-11-19T13:32:55.281Z,99920.16
2022-11-19T13:35:27.256Z,99925.81
2022-11-19T13:38:01.875Z,99909.50
2022-11-19T13:40:35.982Z,99915.69
2022-11-19T13:43:32.146Z,99895.03
2022-11-19T13:46:09.410Z,99925.28
2022-11-19T13:48:41.836Z,99916.09
2022-11-19T13:51:27.831Z,99920.22
2022-11-19T13:54:02.647Z,99921.91
2022-11-19T13:56:43.740Z,99919.53
2022-11-19T13:59:28.038Z,99928.00
2022-11-19T14:02:21.144Z,99929.06
2022-11-19T14:05:07.104Z,99940.00
2022-11-19T14:07:54.597Z,99938.56
2022-11-19T14:10:31.905Z,99932.69
2022-11-19T14:13:15.664Z,99923.91
2022-11-19T14:16:11.346Z,99935.56
2022-11-19T14:18:58.858Z,99941.00
2022-11-19T14:22:03.828Z,99925.19
2022-11-19T14:25:11.684Z,99938.97
2022-11-19T14:27:41.078Z,99935.22
2022-11-19T14:30:18.076Z,99948.91
2022-11-19T14:32:51.535Z,99945.50
2022-11-19T14:35:34.084Z,99950.75
2022-11-19T14:38:34.719Z,99950.88
2022-11-19T14:41:08.229Z,99952.75
2022-11-19T14:44:10.021Z,99955.63
2022-11-19T14:46:40.554Z,99960.22
2022-11-19T14:49:27.580Z,99956.75
2022-11-19T14:51:57.597Z,99969.19
2022-11-19T14:54:39.360Z,99948.69
2022-11-19T14:57:16.489Z,99955.94
2022-11-19T14:59:51.589Z,99946.97
2022-11-19T15:02:30.531Z,99956.66
2022-11-19T15:05:02.880Z,99951.66
2022-11-19T15:07:40.909Z,99965.94
2022-11-19T15:10:27.895Z,99962.06
2022-11-19T15:13:19.245Z,99951.84
2022-11-19T15:15:51.608Z,99950.09
2022-11-19T15:18:55.826Z,99951.19
2022-11-19T15:21:42.961Z,99955.94
2022-11-19T15:24:22.620Z,99957.22
2022-11-19T15:27:00.231Z,99957.81
2022-11-19T15:30:01.125Z,99964.09
2022-11-19T15:32:43.898Z,99963.94
2022-11-19T15:35:29.523Z,99964.50
2022-11-19T15:38:03.496Z,99970.59
2022-11-19T15:40:34.922Z,99965.72
2022-11-19T15:43:10.201Z,99961.78
2022-11-19T15:45:45.034Z,99963.28
2022-11-19T15:48:20.211Z,99974.19
2022-11-19T15:50:49.591Z,99971.72
2022-11-19T15:53:19.423Z,99978.53
2022-11-19T15:55:53.213Z,99973.75
2022-11-19T15:58:26.653Z,99984.09
2022-11-19T16:00:56.435Z,99990.03
2022-11-19T16:03:25.849Z,99981.88
2022-11-19T16:06:03.672Z,99973.47
2022-11-19T16:08:32.241Z,99993.34
2022-11-19T16:11:20.488Z,99963.19
2022-11-19T16:14:09.993Z,99984.94
2022-11-19T16:16:56.407Z,99995.88
2022-11-19T16:19:25.637Z,99991.69
2022-11-19T16:21:57.322Z,99991.97
2022-11-19T16:24:44.524Z,99995.69
2022-11-19T16:27:14.224Z,100002.00
2022-11-19T16:29:43.794Z,100009.66
2022-11-19T16:32:16.919Z,100010.69
2022-11-19T16:34:47.034Z,100008.06
2022-11-19T16:37:16.832Z,99998.16
2022-11-19T16:39:51.241Z,100002.16
2022-11-19T16:42:23.005Z,99983.63
2022-11-19T16:44:54.666Z,99994.91
2022-11-19T16:47:25.314Z,99999.81
2022-11-19T16:50:01.770Z,99988.09
2022-11-19T16:52:40.866Z,100005.31
2022-11-19T16:55:42.974Z,100002.44
2022-11-19T16:58:20.494Z,99993.47
2022-11-19T17:00:52.121Z,99980.13
2022-11-19T17:03:34.324Z,99992.72
2022-11-19T17:06:05.163Z,99978.47
2022-11-19T17:08:36.466Z,99990.50
2022-11-19T17:11:35.940Z,99997.44
2022-11-19T17:14:21.281Z,100008.75
2022-11-19T17:16:51.758Z,100003.38
2022-11-19T17:19:33.233Z,100009.75
2022-11-19T17:22:04.720Z,100012.91
2022-11-19T17:24:35.418Z,100011.25
2022-11-19T17:27:03.424Z,100006.81
2022-11-19T17:29:31.276Z,100003.00
2022-11-19T17:31:59.342Z,99989.84
2022-11-19T17:34:31.674Z,100008.66
2022-11-19T17:37:00.605Z,99999.59
2022-11-19T17:39:47.809Z,100002.44
2022-11-19T17:42:33.521Z,100002.38
2022-11-19T17:45:06.033Z,99986.88
2022-11-19T17:47:37.327Z,100002.53
2022-11-19T17:50:05.928Z,100010.16
2022-11-19T17:52:33.900Z,100013.84
2022-11-19T17:55:15.147Z,100012.09
2022-11-19T17:57:43.425Z,100012.72
2022-11-19T18:00:13.516Z,100028.56
2022-11-19T18:02:41.256Z,100033.66
2022-11-19T18:05:16.298Z,100045.06
2022-11-19T18:07:44.602Z,100040.53
2022-11-19T18:10:13.866Z,100029.47
2022-11-19T18:12:41.673Z,100043.19
2022-11-19T18:15:16.576Z,100045.16
2022-11-19T18:17:44.866Z,100034.00
2022-11-19T18:20:13.308Z,100033.91
2022-11-19T18:22:41.522Z,100039.03
2022-11-19T18:25:15.961Z,100032.06
2022-11-19T18:27:44.056Z,100033.56
2022-11-19T18:30:13.535Z,100029.75
2022-11-19T18:32:43.882Z,100042.78
2022-11-19T18:35:16.854Z,100043.69
2022-11-19T18:37:45.438Z,100033.47
2022-11-19T18:40:16.218Z,100057.69
2022-11-19T18:43:04.976Z,100051.69
2022-11-19T18:45:32.253Z,100058.66
2022-11-19T18:48:00.810Z,100038.09
2022-11-19T18:50:30.308Z,100053.66
2022-11-19T18:52:58.582Z,100051.69
2022-11-19T18:55:29.474Z,100053.56
2022-11-19T18:57:57.423Z,100048.50
2022-11-19T19:00:25.522Z,100051.69
2022-11-19T19:02:53.934Z,100040.31
2022-11-19T19:05:22.052Z,100050.88
2022-11-19T19:07:49.981Z,100049.84
2022-11-19T19:10:18.056Z,100055.81
2022-11-19T19:12:46.398Z,100064.13
2022-11-19T19:15:15.300Z,100055.31
2022-11-19T19:17:43.095Z,100062.22
2022-11-19T19:20:12.325Z,100059.28
2022-11-19T19:22:40.295Z,100045.09
2022-11-19T19:25:09.111Z,100055.56
2022-11-19T19:27:36.977Z,100055.66
2022-11-19T19:30:07.406Z,100046.50
2022-11-19T19:32:35.205Z,100063.38
2022-11-19T19:35:03.012Z,100060.94
2022-11-19T19:37:30.845Z,100065.81
2022-11-19T19:39:58.735Z,100067.66
2022-11-19T19:42:29.508Z,100069.88
2022-11-19T19:44:58.588Z,100067.69
2022-11-19T19:47:27.864Z,100074.41
2022-11-19T19:49:55.731Z,100064.16
2022-11-19T19:52:23.650Z,100073.41
2022-11-19T19:54:51.582Z,100082.59
2022-11-19T19:57:19.454Z,100087.66
2022-11-19T19:59:47.748Z,100086.16
2022-11-19T20:02:15.836Z,100097.06
2022-11-19T20:04:45.031Z,100090.53
2022-11-19T20:07:16.821Z,100089.94
2022-11-19T20:09:44.768Z,100088.13
2022-11-19T20:12:12.549Z,100084.97
2022-11-19T20:14:40.318Z,100081.31
2022-11-19T20:17:08.292Z,100073.50
2022-11-19T20:19:36.129Z,100068.34
2022-11-19T20:22:05.407Z,100066.06
2022-11-19T20:24:33.254Z,100068.63
2022-11-19T20:27:01.143Z,100064.34
2022-11-19T20:29:28.910Z,100077.53
2022-11-19T20:31:56.956Z,100091.72
2022-11-19T20:34:24.988Z,100081.31
2022-11-19T20:36:53.750Z,100076.91
2022-11-19T20:39:23.315Z,100070.13
2022-11-19T20:42:07.827Z,100063.19
2022-11-19T20:44:35.550Z,100064.34
2022-11-19T20:47:04.598Z,100062.44
2022-11-19T20:49:34.265Z,100078.88
2022-11-19T20:52:03.286Z,100082.41
2022-11-19T20:54:33.148Z,100080.38
2022-11-19T20:57:01.330Z,100082.41
2022-11-19T20:59:29.643Z,100081.13
2022-11-19T21:01:57.955Z,100083.91
2022-11-19T21:04:27.232Z,100085.34
2022-11-19T21:06:55.216Z,100079.28
2022-11-19T21:09:23.317Z,100081.41
2022-11-19T21:11:53.183Z,100070.75
2022-11-19T21:14:20.970Z,100086.59
2022-11-19T21:16:48.865Z,100083.09
2022-11-19T21:19:16.809Z,100096.41
2022-11-19T21:21:45.655Z,100097.66
2022-11-19T21:24:14.092Z,100095.25
2022-11-19T21:26:41.882Z,100100.03
2022-11-19T21:29:11.306Z,100088.53
2022-11-19T21:31:40.502Z,100085.09
2022-11-19T21:34:10.087Z,100079.63
2022-11-19T21:36:44.646Z,100082.84
2022-11-19T21:39:14.083Z,100079.28
2022-11-19T21:41:42.202Z,100079.81
2022-11-19T21:44:13.330Z,100085.91
2022-11-19T21:46:44.490Z,100074.69
2022-11-19T21:49:12.328Z,100067.22
2022-11-19T21:51:40.251Z,100077.28
2022-11-19T21:54:08.191Z,100077.28
2022-11-19T21:56:38.753Z,100082.69
2022-11-19T21:59:07.658Z,100075.06
2022-11-19T22:01:36.820Z,100063.13
2022-11-19T22:04:07.544Z,100070.47
2022-11-19T22:06:40.077Z,100071.41
2022-11-19T22:09:07.961Z,100068.88
2022-11-19T22:11:35.889Z,100073.16
2022-11-19T22:14:11.027Z,100067.56
2022-11-19T22:16:41.525Z,100073.66
2022-11-19T22:19:11.613Z,100070.97
2022-11-19T22:21:40.180Z,100076.66
2022-11-19T22:24:08.087Z,100070.09
2022-11-19T22:26:36.036Z,100077.75
2022-11-19T22:29:03.846Z,100076.69
2022-11-19T22:31:31.781Z,100067.63
2022-11-19T22:34:01.453Z,100070.78
2022-11-19T22:36:33.224Z,100071.25
2022-11-19T22:39:01.342Z,100066.22
2022-11-19T22:41:29.167Z,100068.31
2022-11-19T22:43:57.043Z,100070.41
2022-11-19T22:46:25.033Z,100069.22
2022-11-19T22:48:53.721Z,100054.03
2022-11-19T22:51:25.328Z,100064.59
2022-11-19T22:53:54.770Z,100063.34
2022-11-19T22:56:24.546Z,100060.69
2022-11-19T22:58:52.639Z,100050.25
2022-11-19T23:01:24.318Z,100058.97
2022-11-19T23:03:52.544Z,100049.03
2022-11-19T23:06:22.749Z,100052.72
2022-11-19T23:08:51.094Z,100056.84
2022-11-19T23:11:42.209Z,100048.72
2022-11-19T23:14:11.275Z,100039.03
2022-11-19T23:16:39.805Z,100040.38
2022-11-19T23:19:08.069Z,100037.44
2022-11-19T23:21:37.640Z,100032.94
2022-11-19T23:24:06.037Z,100034.09
2022-11-19T23:26:35.393Z,100045.94
2022-11-19T23:29:03.696Z,100043.97
2022-11-19T23:31:32.954Z,100049.47
2022-11-19T23:34:00.851Z,100047.00
2022-11-19T23:36:31.038Z,100034.66
2022-11-19T23:39:00.693Z,100035.41
2022-11-19T23:41:29.358Z,100033.97
2022-11-19T23:43:57.501Z,100034.59
2022-11-19T23:46:26.699Z,100028.13
2022-11-19T23:48:55.946Z,100035.34
2022-11-19T23:51:26.903Z,100031.31
2022-11-19T23:53:55.465Z,100039.34
2022-11-19T23:56:25.617Z,100031.16
2022-11-19T23:58:54.798Z,100033.16
